KINS/INS METAR and TAF weather

Enter ICAO airport designator
Station Type Date Time Source
KINS METAR 2021/09/25 10:58 UTC NOAA

KINS 251058Z AUTO 00000KT 10SM CLR 17/M04 A3003 RMK AO2 SLP126 T01671040 $


Station Type Date Time Source
KINS Decoded METAR 2021/09/25 10:58 UTC NOAA

Indian Springs, Indian Springs Auxiliary AFLD Nellis AFB, NV, United States (KINS) 36-35N 115-40W
Sep 25, 2021 - 06:58 AM EDT / 2021.09.25 1058 UTC
Wind: Calm:0
Visibility: 10 mile(s):0
Sky conditions: clear
Temperature: 62.1 F (16.7 C)
Dew Point: 24.8 F (-4.0 C)
Relative Humidity: 23%
Pressure (altimeter): 30.03 in. Hg (1016 hPa)
ob: KINS 251058Z AUTO 00000KT 10SM CLR 17/M04 A3003 RMK AO2 SLP126 T01671040
cycle: 11

Station Type Date Time Source
KINS TAF 2021/09/25 05:45 UTC NOAA

TAF TAF KINS 250444Z 2505/2611 VRB06KT 9000 HZ FEW140 QNH2995INS
BECMG 2520/2521 12010G22KT 9999 NSW BKN160 QNH2990INS WND 120V230
BECMG 2603/2604 21006KT 9000 HZ FEW250 QNH2998INS TX33/2522Z TN17/2513Z LAST NO
AMDS AFT 2505 NEXT 2514

Example: see airport list